sensor_id;sensor_type;location;lat;lon;timestamp;P1;durP1;ratioP1;P2;durP2;ratioP2
21593;SDS011;10959;51.328;7.322;2022-12-18T00:01:48;4.97;;;3.33;;
21593;SDS011;10959;51.328;7.322;2022-12-18T00:04:15;3.83;;;3.00;;
21593;SDS011;10959;51.328;7.322;2022-12-18T00:06:47;3.70;;;3.03;;
21593;SDS011;10959;51.328;7.322;2022-12-18T00:09:13;4.43;;;3.07;;
21593;SDS011;10959;51.328;7.322;2022-12-18T00:11:40;4.00;;;3.00;;
21593;SDS011;10959;51.328;7.322;2022-12-18T00:14:06;5.20;;;3.70;;
21593;SDS011;10959;51.328;7.322;2022-12-18T00:16:33;4.93;;;3.37;;
21593;SDS011;10959;51.328;7.322;2022-12-18T00:19:02;5.60;;;3.83;;
21593;SDS011;10959;51.328;7.322;2022-12-18T00:21:29;6.03;;;3.50;;
21593;SDS011;10959;51.328;7.322;2022-12-18T00:23:58;4.83;;;3.07;;
21593;SDS011;10959;51.328;7.322;2022-12-18T00:26:26;4.83;;;3.30;;
21593;SDS011;10959;51.328;7.322;2022-12-18T00:28:55;4.50;;;3.30;;
21593;SDS011;10959;51.328;7.322;2022-12-18T00:31:24;4.90;;;3.33;;
21593;SDS011;10959;51.328;7.322;2022-12-18T00:33:53;4.33;;;3.57;;
21593;SDS011;10959;51.328;7.322;2022-12-18T00:36:21;4.63;;;3.47;;
21593;SDS011;10959;51.328;7.322;2022-12-18T00:38:49;4.07;;;2.80;;
21593;SDS011;10959;51.328;7.322;2022-12-18T00:41:17;3.47;;;2.93;;
21593;SDS011;10959;51.328;7.322;2022-12-18T00:44:04;4.60;;;2.97;;
21593;SDS011;10959;51.328;7.322;2022-12-18T00:46:31;6.50;;;3.70;;
21593;SDS011;10959;51.328;7.322;2022-12-18T00:48:58;3.80;;;3.20;;
21593;SDS011;10959;51.328;7.322;2022-12-18T00:51:24;4.17;;;3.03;;
21593;SDS011;10959;51.328;7.322;2022-12-18T00:53:51;4.20;;;3.40;;
21593;SDS011;10959;51.328;7.322;2022-12-18T00:56:19;4.73;;;3.53;;
21593;SDS011;10959;51.328;7.322;2022-12-18T00:58:45;4.03;;;3.17;;
21593;SDS011;10959;51.328;7.322;2022-12-18T01:01:12;4.80;;;3.50;;
21593;SDS011;10959;51.328;7.322;2022-12-18T01:03:38;3.80;;;3.17;;
21593;SDS011;10959;51.328;7.322;2022-12-18T01:06:05;4.77;;;3.53;;
21593;SDS011;10959;51.328;7.322;2022-12-18T01:08:32;4.03;;;3.30;;
21593;SDS011;10959;51.328;7.322;2022-12-18T01:11:00;3.43;;;3.10;;
21593;SDS011;10959;51.328;7.322;2022-12-18T01:13:28;4.20;;;3.33;;
21593;SDS011;10959;51.328;7.322;2022-12-18T01:15:54;4.60;;;3.30;;
21593;SDS011;10959;51.328;7.322;2022-12-18T01:18:20;3.90;;;2.93;;
21593;SDS011;10959;51.328;7.322;2022-12-18T01:20:47;4.67;;;3.53;;
21593;SDS011;10959;51.328;7.322;2022-12-18T01:23:13;5.20;;;3.40;;
21593;SDS011;10959;51.328;7.322;2022-12-18T01:25:39;5.40;;;3.53;;
21593;SDS011;10959;51.328;7.322;2022-12-18T01:28:06;4.90;;;3.70;;
21593;SDS011;10959;51.328;7.322;2022-12-18T01:30:34;5.47;;;4.07;;
21593;SDS011;10959;51.328;7.322;2022-12-18T01:33:00;3.97;;;3.30;;
21593;SDS011;10959;51.328;7.322;2022-12-18T01:35:26;3.97;;;3.13;;
21593;SDS011;10959;51.328;7.322;2022-12-18T01:37:54;4.67;;;3.60;;
21593;SDS011;10959;51.328;7.322;2022-12-18T01:40:20;4.23;;;3.40;;
21593;SDS011;10959;51.328;7.322;2022-12-18T01:42:49;5.20;;;3.23;;
21593;SDS011;10959;51.328;7.322;2022-12-18T01:45:24;4.67;;;3.67;;
21593;SDS011;10959;51.328;7.322;2022-12-18T01:47:54;3.73;;;3.07;;
21593;SDS011;10959;51.328;7.322;2022-12-18T01:50:23;4.17;;;3.10;;
21593;SDS011;10959;51.328;7.322;2022-12-18T01:52:53;3.97;;;3.33;;
21593;SDS011;10959;51.328;7.322;2022-12-18T01:55:23;5.17;;;3.57;;
21593;SDS011;10959;51.328;7.322;2022-12-18T01:57:51;5.87;;;3.67;;
21593;SDS011;10959;51.328;7.322;2022-12-18T02:00:20;5.30;;;3.87;;
21593;SDS011;10959;51.328;7.322;2022-12-18T02:02:47;3.87;;;3.20;;
21593;SDS011;10959;51.328;7.322;2022-12-18T02:05:16;5.87;;;3.43;;
21593;SDS011;10959;51.328;7.322;2022-12-18T02:07:47;4.30;;;3.33;;
21593;SDS011;10959;51.328;7.322;2022-12-18T02:10:24;4.00;;;3.43;;
21593;SDS011;10959;51.328;7.322;2022-12-18T02:12:56;5.43;;;3.70;;
21593;SDS011;10959;51.328;7.322;2022-12-18T02:15:34;4.50;;;3.60;;
21593;SDS011;10959;51.328;7.322;2022-12-18T02:18:05;5.40;;;3.80;;
21593;SDS011;10959;51.328;7.322;2022-12-18T02:20:39;6.30;;;4.23;;
21593;SDS011;10959;51.328;7.322;2022-12-18T02:23:12;4.73;;;3.27;;
21593;SDS011;10959;51.328;7.322;2022-12-18T02:25:58;6.33;;;4.03;;
21593;SDS011;10959;51.328;7.322;2022-12-18T02:28:33;6.50;;;4.57;;
21593;SDS011;10959;51.328;7.322;2022-12-18T02:31:04;4.70;;;3.67;;
21593;SDS011;10959;51.328;7.322;2022-12-18T02:33:34;4.30;;;3.33;;
21593;SDS011;10959;51.328;7.322;2022-12-18T02:36:02;4.60;;;3.60;;
21593;SDS011;10959;51.328;7.322;2022-12-18T02:38:29;5.43;;;4.07;;
21593;SDS011;10959;51.328;7.322;2022-12-18T02:40:58;3.60;;;3.23;;
21593;SDS011;10959;51.328;7.322;2022-12-18T02:43:26;4.33;;;3.17;;
21593;SDS011;10959;51.328;7.322;2022-12-18T02:45:53;4.47;;;3.63;;
21593;SDS011;10959;51.328;7.322;2022-12-18T02:48:22;4.83;;;3.40;;
21593;SDS011;10959;51.328;7.322;2022-12-18T02:50:51;5.67;;;3.90;;
21593;SDS011;10959;51.328;7.322;2022-12-18T02:53:26;4.13;;;3.40;;
21593;SDS011;10959;51.328;7.322;2022-12-18T02:56:03;5.83;;;3.73;;
21593;SDS011;10959;51.328;7.322;2022-12-18T02:58:34;4.83;;;3.43;;
21593;SDS011;10959;51.328;7.322;2022-12-18T03:01:10;5.07;;;3.73;;
21593;SDS011;10959;51.328;7.322;2022-12-18T03:03:41;4.83;;;3.70;;
21593;SDS011;10959;51.328;7.322;2022-12-18T03:06:14;4.67;;;3.37;;
21593;SDS011;10959;51.328;7.322;2022-12-18T03:08:48;4.80;;;3.53;;
21593;SDS011;10959;51.328;7.322;2022-12-18T03:11:28;5.03;;;3.50;;
21593;SDS011;10959;51.328;7.322;2022-12-18T03:14:17;6.00;;;3.70;;
21593;SDS011;10959;51.328;7.322;2022-12-18T03:16:47;6.20;;;3.90;;
21593;SDS011;10959;51.328;7.322;2022-12-18T03:19:18;4.90;;;3.43;;
21593;SDS011;10959;51.328;7.322;2022-12-18T03:21:49;4.80;;;3.57;;
21593;SDS011;10959;51.328;7.322;2022-12-18T03:24:18;5.27;;;4.00;;
21593;SDS011;10959;51.328;7.322;2022-12-18T03:26:49;4.60;;;3.77;;
21593;SDS011;10959;51.328;7.322;2022-12-18T03:29:18;4.53;;;3.23;;
21593;SDS011;10959;51.328;7.322;2022-12-18T03:31:49;4.63;;;3.70;;
21593;SDS011;10959;51.328;7.322;2022-12-18T03:34:21;3.93;;;3.53;;
21593;SDS011;10959;51.328;7.322;2022-12-18T03:36:52;4.67;;;3.60;;
21593;SDS011;10959;51.328;7.322;2022-12-18T03:39:19;3.83;;;3.40;;
21593;SDS011;10959;51.328;7.322;2022-12-18T03:41:47;4.80;;;3.50;;
21593;SDS011;10959;51.328;7.322;2022-12-18T03:44:24;4.40;;;3.67;;
21593;SDS011;10959;51.328;7.322;2022-12-18T03:46:57;4.87;;;3.50;;
21593;SDS011;10959;51.328;7.322;2022-12-18T03:49:30;5.07;;;3.67;;
21593;SDS011;10959;51.328;7.322;2022-12-18T03:52:01;5.23;;;3.97;;
21593;SDS011;10959;51.328;7.322;2022-12-18T03:54:30;5.37;;;3.87;;
21593;SDS011;10959;51.328;7.322;2022-12-18T03:57:01;3.40;;;2.90;;
21593;SDS011;10959;51.328;7.322;2022-12-18T03:59:32;4.23;;;3.30;;
21593;SDS011;10959;51.328;7.322;2022-12-18T04:02:00;4.83;;;3.10;;
21593;SDS011;10959;51.328;7.322;2022-12-18T04:04:29;4.93;;;3.50;;
21593;SDS011;10959;51.328;7.322;2022-12-18T04:06:57;3.53;;;2.97;;
21593;SDS011;10959;51.328;7.322;2022-12-18T04:09:24;3.30;;;2.67;;
21593;SDS011;10959;51.328;7.322;2022-12-18T04:11:52;4.70;;;3.03;;
21593;SDS011;10959;51.328;7.322;2022-12-18T04:14:20;3.70;;;2.80;;
21593;SDS011;10959;51.328;7.322;2022-12-18T04:16:46;4.50;;;3.30;;
21593;SDS011;10959;51.328;7.322;2022-12-18T04:19:13;4.63;;;3.13;;
21593;SDS011;10959;51.328;7.322;2022-12-18T04:21:39;3.67;;;3.00;;
21593;SDS011;10959;51.328;7.322;2022-12-18T04:24:06;3.47;;;2.77;;
21593;SDS011;10959;51.328;7.322;2022-12-18T04:26:33;3.70;;;3.03;;
21593;SDS011;10959;51.328;7.322;2022-12-18T04:29:00;3.33;;;2.60;;
21593;SDS011;10959;51.328;7.322;2022-12-18T04:31:27;3.63;;;2.77;;
21593;SDS011;10959;51.328;7.322;2022-12-18T04:33:54;4.00;;;2.83;;
21593;SDS011;10959;51.328;7.322;2022-12-18T04:36:20;4.27;;;3.27;;
21593;SDS011;10959;51.328;7.322;2022-12-18T04:38:47;3.80;;;2.87;;
21593;SDS011;10959;51.328;7.322;2022-12-18T04:41:13;2.77;;;2.50;;
21593;SDS011;10959;51.328;7.322;2022-12-18T04:43:39;3.13;;;2.70;;
21593;SDS011;10959;51.328;7.322;2022-12-18T04:46:06;4.37;;;3.37;;
21593;SDS011;10959;51.328;7.322;2022-12-18T04:48:35;3.80;;;2.70;;
21593;SDS011;10959;51.328;7.322;2022-12-18T04:51:03;3.73;;;2.73;;
21593;SDS011;10959;51.328;7.322;2022-12-18T04:53:29;3.30;;;3.00;;
21593;SDS011;10959;51.328;7.322;2022-12-18T04:56:03;3.63;;;3.20;;
21593;SDS011;10959;51.328;7.322;2022-12-18T04:58:31;4.80;;;3.50;;
21593;SDS011;10959;51.328;7.322;2022-12-18T05:00:57;5.30;;;2.90;;
21593;SDS011;10959;51.328;7.322;2022-12-18T05:03:23;4.70;;;3.70;;
21593;SDS011;10959;51.328;7.322;2022-12-18T05:05:51;4.73;;;3.33;;
21593;SDS011;10959;51.328;7.322;2022-12-18T05:08:18;3.07;;;2.63;;
21593;SDS011;10959;51.328;7.322;2022-12-18T05:10:44;4.90;;;3.00;;
21593;SDS011;10959;51.328;7.322;2022-12-18T05:13:11;4.03;;;3.30;;
21593;SDS011;10959;51.328;7.322;2022-12-18T05:15:37;4.37;;;3.17;;
21593;SDS011;10959;51.328;7.322;2022-12-18T05:18:04;3.60;;;3.13;;
21593;SDS011;10959;51.328;7.322;2022-12-18T05:20:30;4.27;;;3.10;;
21593;SDS011;10959;51.328;7.322;2022-12-18T05:22:58;3.60;;;2.77;;
21593;SDS011;10959;51.328;7.322;2022-12-18T05:25:25;4.33;;;2.97;;
21593;SDS011;10959;51.328;7.322;2022-12-18T05:27:51;4.63;;;3.03;;
21593;SDS011;10959;51.328;7.322;2022-12-18T05:30:18;5.20;;;3.30;;
21593;SDS011;10959;51.328;7.322;2022-12-18T05:32:44;5.33;;;3.63;;
21593;SDS011;10959;51.328;7.322;2022-12-18T05:35:10;5.17;;;3.47;;
21593;SDS011;10959;51.328;7.322;2022-12-18T05:37:37;4.20;;;3.03;;
21593;SDS011;10959;51.328;7.322;2022-12-18T05:40:05;4.30;;;3.30;;
21593;SDS011;10959;51.328;7.322;2022-12-18T05:42:33;3.60;;;3.03;;
21593;SDS011;10959;51.328;7.322;2022-12-18T05:44:59;4.73;;;3.37;;
21593;SDS011;10959;51.328;7.322;2022-12-18T05:47:26;4.73;;;3.40;;
21593;SDS011;10959;51.328;7.322;2022-12-18T05:49:52;5.60;;;3.57;;
21593;SDS011;10959;51.328;7.322;2022-12-18T05:52:19;5.20;;;3.57;;
21593;SDS011;10959;51.328;7.322;2022-12-18T05:54:45;5.47;;;4.10;;
21593;SDS011;10959;51.328;7.322;2022-12-18T05:57:13;5.73;;;3.57;;
21593;SDS011;10959;51.328;7.322;2022-12-18T05:59:39;4.00;;;3.60;;
21593;SDS011;10959;51.328;7.322;2022-12-18T06:02:06;4.40;;;3.43;;
21593;SDS011;10959;51.328;7.322;2022-12-18T06:04:32;4.53;;;3.30;;
21593;SDS011;10959;51.328;7.322;2022-12-18T06:06:59;4.10;;;3.50;;
21593;SDS011;10959;51.328;7.322;2022-12-18T06:09:25;6.43;;;3.40;;
21593;SDS011;10959;51.328;7.322;2022-12-18T06:11:52;4.90;;;3.90;;
21593;SDS011;10959;51.328;7.322;2022-12-18T06:14:20;4.30;;;3.30;;
21593;SDS011;10959;51.328;7.322;2022-12-18T06:16:46;4.97;;;3.70;;
21593;SDS011;10959;51.328;7.322;2022-12-18T06:19:14;6.17;;;4.10;;
21593;SDS011;10959;51.328;7.322;2022-12-18T06:21:41;4.77;;;3.80;;
21593;SDS011;10959;51.328;7.322;2022-12-18T06:24:08;4.83;;;3.83;;
21593;SDS011;10959;51.328;7.322;2022-12-18T06:26:36;4.37;;;3.60;;
21593;SDS011;10959;51.328;7.322;2022-12-18T06:29:03;5.90;;;4.13;;
21593;SDS011;10959;51.328;7.322;2022-12-18T06:31:31;5.47;;;3.63;;
21593;SDS011;10959;51.328;7.322;2022-12-18T06:33:57;4.40;;;3.47;;
21593;SDS011;10959;51.328;7.322;2022-12-18T06:36:24;4.90;;;3.70;;
21593;SDS011;10959;51.328;7.322;2022-12-18T06:38:50;6.27;;;3.77;;
21593;SDS011;10959;51.328;7.322;2022-12-18T06:41:18;5.17;;;3.80;;
21593;SDS011;10959;51.328;7.322;2022-12-18T06:43:46;6.07;;;4.13;;
21593;SDS011;10959;51.328;7.322;2022-12-18T06:46:12;5.13;;;4.30;;
21593;SDS011;10959;51.328;7.322;2022-12-18T06:48:41;6.30;;;4.40;;
21593;SDS011;10959;51.328;7.322;2022-12-18T06:51:07;6.00;;;3.77;;
21593;SDS011;10959;51.328;7.322;2022-12-18T06:53:34;5.53;;;4.30;;
21593;SDS011;10959;51.328;7.322;2022-12-18T06:56:00;6.10;;;3.93;;
21593;SDS011;10959;51.328;7.322;2022-12-18T06:58:27;5.23;;;4.10;;
21593;SDS011;10959;51.328;7.322;2022-12-18T07:00:58;4.80;;;4.30;;
21593;SDS011;10959;51.328;7.322;2022-12-18T07:03:26;5.57;;;3.80;;
21593;SDS011;10959;51.328;7.322;2022-12-18T07:05:53;5.33;;;3.60;;
21593;SDS011;10959;51.328;7.322;2022-12-18T07:08:20;6.00;;;3.97;;
21593;SDS011;10959;51.328;7.322;2022-12-18T07:10:46;5.10;;;3.83;;
21593;SDS011;10959;51.328;7.322;2022-12-18T07:13:14;6.17;;;4.20;;
21593;SDS011;10959;51.328;7.322;2022-12-18T07:15:41;5.30;;;4.03;;
21593;SDS011;10959;51.328;7.322;2022-12-18T07:18:07;4.90;;;3.73;;
21593;SDS011;10959;51.328;7.322;2022-12-18T07:20:34;5.80;;;4.10;;
21593;SDS011;10959;51.328;7.322;2022-12-18T07:23:02;5.93;;;4.00;;
21593;SDS011;10959;51.328;7.322;2022-12-18T07:25:30;6.70;;;3.90;;
21593;SDS011;10959;51.328;7.322;2022-12-18T07:27:56;5.40;;;4.03;;
21593;SDS011;10959;51.328;7.322;2022-12-18T07:30:23;5.53;;;3.80;;
21593;SDS011;10959;51.328;7.322;2022-12-18T07:32:49;5.33;;;3.77;;
21593;SDS011;10959;51.328;7.322;2022-12-18T07:35:16;5.07;;;3.80;;
21593;SDS011;10959;51.328;7.322;2022-12-18T07:37:42;6.10;;;4.10;;
21593;SDS011;10959;51.328;7.322;2022-12-18T07:40:10;5.93;;;4.07;;
21593;SDS011;10959;51.328;7.322;2022-12-18T07:42:37;6.90;;;4.23;;
21593;SDS011;10959;51.328;7.322;2022-12-18T07:45:04;4.70;;;3.60;;
21593;SDS011;10959;51.328;7.322;2022-12-18T07:47:33;6.03;;;3.93;;
21593;SDS011;10959;51.328;7.322;2022-12-18T07:50:00;6.87;;;4.00;;
21593;SDS011;10959;51.328;7.322;2022-12-18T07:52:27;5.73;;;3.70;;
21593;SDS011;10959;51.328;7.322;2022-12-18T07:54:53;6.77;;;4.27;;
21593;SDS011;10959;51.328;7.322;2022-12-18T07:57:21;5.17;;;3.70;;
21593;SDS011;10959;51.328;7.322;2022-12-18T07:59:47;4.87;;;3.17;;
21593;SDS011;10959;51.328;7.322;2022-12-18T08:02:14;4.97;;;3.73;;
21593;SDS011;10959;51.328;7.322;2022-12-18T08:04:40;4.57;;;3.57;;
21593;SDS011;10959;51.328;7.322;2022-12-18T08:07:06;4.63;;;3.40;;
21593;SDS011;10959;51.328;7.322;2022-12-18T08:09:33;5.30;;;3.40;;
21593;SDS011;10959;51.328;7.322;2022-12-18T08:11:59;5.63;;;3.80;;
21593;SDS011;10959;51.328;7.322;2022-12-18T08:14:27;5.03;;;3.63;;
21593;SDS011;10959;51.328;7.322;2022-12-18T08:16:53;4.30;;;3.30;;
21593;SDS011;10959;51.328;7.322;2022-12-18T08:19:20;4.10;;;3.10;;
21593;SDS011;10959;51.328;7.322;2022-12-18T08:21:46;4.40;;;3.40;;
21593;SDS011;10959;51.328;7.322;2022-12-18T08:24:13;5.30;;;3.30;;
21593;SDS011;10959;51.328;7.322;2022-12-18T08:26:39;5.20;;;3.00;;
21593;SDS011;10959;51.328;7.322;2022-12-18T08:29:05;5.07;;;3.73;;
21593;SDS011;10959;51.328;7.322;2022-12-18T08:31:33;3.60;;;2.83;;
21593;SDS011;10959;51.328;7.322;2022-12-18T08:34:00;5.37;;;3.73;;
21593;SDS011;10959;51.328;7.322;2022-12-18T08:36:26;5.03;;;3.57;;
21593;SDS011;10959;51.328;7.322;2022-12-18T08:38:52;3.90;;;3.50;;
21593;SDS011;10959;51.328;7.322;2022-12-18T08:41:20;4.80;;;3.30;;
21593;SDS011;10959;51.328;7.322;2022-12-18T08:43:47;4.37;;;3.27;;
21593;SDS011;10959;51.328;7.322;2022-12-18T08:46:32;4.30;;;3.03;;
21593;SDS011;10959;51.328;7.322;2022-12-18T08:49:02;3.97;;;3.33;;
21593;SDS011;10959;51.328;7.322;2022-12-18T08:51:29;3.37;;;2.70;;
21593;SDS011;10959;51.328;7.322;2022-12-18T08:53:56;4.77;;;3.33;;
21593;SDS011;10959;51.328;7.322;2022-12-18T08:56:22;4.93;;;3.60;;
21593;SDS011;10959;51.328;7.322;2022-12-18T08:58:50;3.63;;;3.03;;
21593;SDS011;10959;51.328;7.322;2022-12-18T09:01:17;4.50;;;3.53;;
21593;SDS011;10959;51.328;7.322;2022-12-18T09:03:45;4.20;;;3.17;;
21593;SDS011;10959;51.328;7.322;2022-12-18T09:06:13;3.77;;;3.30;;
21593;SDS011;10959;51.328;7.322;2022-12-18T09:08:41;2.97;;;2.67;;
21593;SDS011;10959;51.328;7.322;2022-12-18T09:11:10;3.80;;;2.80;;
21593;SDS011;10959;51.328;7.322;2022-12-18T09:13:39;3.67;;;2.87;;
21593;SDS011;10959;51.328;7.322;2022-12-18T09:16:06;4.27;;;3.03;;
21593;SDS011;10959;51.328;7.322;2022-12-18T09:18:32;3.33;;;2.43;;
21593;SDS011;10959;51.328;7.322;2022-12-18T09:21:06;4.13;;;2.60;;
21593;SDS011;10959;51.328;7.322;2022-12-18T09:23:34;3.73;;;2.57;;
21593;SDS011;10959;51.328;7.322;2022-12-18T09:26:00;5.60;;;2.87;;
21593;SDS011;10959;51.328;7.322;2022-12-18T09:28:26;3.70;;;2.73;;
21593;SDS011;10959;51.328;7.322;2022-12-18T09:30:53;3.07;;;2.47;;
21593;SDS011;10959;51.328;7.322;2022-12-18T09:33:19;3.73;;;2.73;;
21593;SDS011;10959;51.328;7.322;2022-12-18T09:35:46;3.50;;;2.60;;
21593;SDS011;10959;51.328;7.322;2022-12-18T09:38:14;4.33;;;2.70;;
21593;SDS011;10959;51.328;7.322;2022-12-18T09:40:43;2.77;;;2.40;;
21593;SDS011;10959;51.328;7.322;2022-12-18T09:43:13;2.90;;;2.20;;
21593;SDS011;10959;51.328;7.322;2022-12-18T09:45:44;4.13;;;2.77;;
21593;SDS011;10959;51.328;7.322;2022-12-18T09:48:15;3.60;;;2.80;;
21593;SDS011;10959;51.328;7.322;2022-12-18T09:50:46;3.73;;;2.67;;
21593;SDS011;10959;51.328;7.322;2022-12-18T09:53:17;3.60;;;2.60;;
21593;SDS011;10959;51.328;7.322;2022-12-18T09:55:47;4.07;;;2.93;;
21593;SDS011;10959;51.328;7.322;2022-12-18T09:58:19;3.43;;;2.40;;
21593;SDS011;10959;51.328;7.322;2022-12-18T10:00:51;3.40;;;2.33;;
21593;SDS011;10959;51.328;7.322;2022-12-18T10:03:18;4.40;;;2.60;;
21593;SDS011;10959;51.328;7.322;2022-12-18T10:05:46;3.20;;;2.30;;
21593;SDS011;10959;51.328;7.322;2022-12-18T10:08:24;3.90;;;2.50;;
21593;SDS011;10959;51.328;7.322;2022-12-18T10:11:01;3.20;;;2.50;;
21593;SDS011;10959;51.328;7.322;2022-12-18T10:13:39;3.67;;;2.73;;
21593;SDS011;10959;51.328;7.322;2022-12-18T10:16:14;3.40;;;2.40;;
21593;SDS011;10959;51.328;7.322;2022-12-18T10:18:49;5.13;;;2.63;;
21593;SDS011;10959;51.328;7.322;2022-12-18T10:21:29;3.50;;;2.60;;
21593;SDS011;10959;51.328;7.322;2022-12-18T10:24:02;3.00;;;2.40;;
21593;SDS011;10959;51.328;7.322;2022-12-18T10:26:39;3.00;;;2.30;;
21593;SDS011;10959;51.328;7.322;2022-12-18T10:29:08;3.57;;;2.47;;
21593;SDS011;10959;51.328;7.322;2022-12-18T10:31:37;2.93;;;2.47;;
21593;SDS011;10959;51.328;7.322;2022-12-18T10:34:04;4.30;;;2.63;;
21593;SDS011;10959;51.328;7.322;2022-12-18T10:36:34;3.43;;;2.80;;
21593;SDS011;10959;51.328;7.322;2022-12-18T10:39:08;4.37;;;2.57;;
21593;SDS011;10959;51.328;7.322;2022-12-18T10:41:41;3.07;;;2.37;;
21593;SDS011;10959;51.328;7.322;2022-12-18T10:44:11;3.77;;;3.07;;
21593;SDS011;10959;51.328;7.322;2022-12-18T10:46:43;3.60;;;2.63;;
21593;SDS011;10959;51.328;7.322;2022-12-18T10:49:18;4.57;;;2.57;;
21593;SDS011;10959;51.328;7.322;2022-12-18T10:51:47;3.27;;;2.80;;
21593;SDS011;10959;51.328;7.322;2022-12-18T10:54:15;4.03;;;3.10;;
21593;SDS011;10959;51.328;7.322;2022-12-18T10:56:44;3.83;;;2.70;;
21593;SDS011;10959;51.328;7.322;2022-12-18T10:59:11;3.83;;;2.50;;
21593;SDS011;10959;51.328;7.322;2022-12-18T11:01:46;4.33;;;3.13;;
21593;SDS011;10959;51.328;7.322;2022-12-18T11:04:16;4.10;;;2.70;;
21593;SDS011;10959;51.328;7.322;2022-12-18T11:06:52;3.60;;;2.77;;
21593;SDS011;10959;51.328;7.322;2022-12-18T11:09:22;3.80;;;2.50;;
21593;SDS011;10959;51.328;7.322;2022-12-18T11:11:50;5.33;;;3.00;;
21593;SDS011;10959;51.328;7.322;2022-12-18T11:14:20;3.23;;;2.30;;
21593;SDS011;10959;51.328;7.322;2022-12-18T11:16:49;4.13;;;2.60;;
21593;SDS011;10959;51.328;7.322;2022-12-18T11:19:21;4.13;;;2.90;;
21593;SDS011;10959;51.328;7.322;2022-12-18T11:21:54;3.43;;;2.77;;
21593;SDS011;10959;51.328;7.322;2022-12-18T11:24:25;3.57;;;2.77;;
21593;SDS011;10959;51.328;7.322;2022-12-18T11:26:55;3.90;;;2.70;;
21593;SDS011;10959;51.328;7.322;2022-12-18T11:29:23;3.70;;;2.93;;
21593;SDS011;10959;51.328;7.322;2022-12-18T11:31:57;4.87;;;2.90;;
21593;SDS011;10959;51.328;7.322;2022-12-18T11:34:51;3.87;;;3.00;;
21593;SDS011;10959;51.328;7.322;2022-12-18T11:37:23;4.40;;;3.00;;
21593;SDS011;10959;51.328;7.322;2022-12-18T11:39:52;3.83;;;2.80;;
21593;SDS011;10959;51.328;7.322;2022-12-18T11:42:24;4.97;;;3.40;;
21593;SDS011;10959;51.328;7.322;2022-12-18T11:44:55;2.87;;;2.47;;
21593;SDS011;10959;51.328;7.322;2022-12-18T11:47:26;3.80;;;2.80;;
21593;SDS011;10959;51.328;7.322;2022-12-18T11:50:03;3.77;;;3.00;;
21593;SDS011;10959;51.328;7.322;2022-12-18T11:52:40;4.40;;;3.20;;
21593;SDS011;10959;51.328;7.322;2022-12-18T11:55:10;4.73;;;3.50;;
21593;SDS011;10959;51.328;7.322;2022-12-18T11:57:41;3.87;;;3.13;;
21593;SDS011;10959;51.328;7.322;2022-12-18T12:00:18;3.83;;;3.00;;
21593;SDS011;10959;51.328;7.322;2022-12-18T12:05:46;3.70;;;3.23;;
21593;SDS011;10959;51.328;7.322;2022-12-18T12:08:24;5.20;;;3.87;;
21593;SDS011;10959;51.328;7.322;2022-12-18T12:11:05;4.03;;;3.43;;
21593;SDS011;10959;51.328;7.322;2022-12-18T12:13:39;6.10;;;3.33;;
21593;SDS011;10959;51.328;7.322;2022-12-18T12:16:16;4.27;;;3.30;;
21593;SDS011;10959;51.328;7.322;2022-12-18T12:18:53;4.00;;;3.27;;
21593;SDS011;10959;51.328;7.322;2022-12-18T12:21:28;5.83;;;3.20;;
21593;SDS011;10959;51.328;7.322;2022-12-18T12:24:06;4.50;;;3.53;;
21593;SDS011;10959;51.328;7.322;2022-12-18T12:26:47;4.23;;;3.30;;
21593;SDS011;10959;51.328;7.322;2022-12-18T12:29:22;4.13;;;3.43;;
21593;SDS011;10959;51.328;7.322;2022-12-18T12:32:01;4.73;;;3.63;;
21593;SDS011;10959;51.328;7.322;2022-12-18T12:34:37;5.20;;;3.90;;
21593;SDS011;10959;51.328;7.322;2022-12-18T12:37:19;5.10;;;3.87;;
21593;SDS011;10959;51.328;7.322;2022-12-18T12:39:56;4.80;;;3.90;;
21593;SDS011;10959;51.328;7.322;2022-12-18T12:42:26;5.40;;;4.50;;
21593;SDS011;10959;51.328;7.322;2022-12-18T12:45:18;5.63;;;4.13;;
21593;SDS011;10959;51.328;7.322;2022-12-18T12:47:49;7.40;;;4.70;;
21593;SDS011;10959;51.328;7.322;2022-12-18T12:50:18;5.47;;;4.40;;
21593;SDS011;10959;51.328;7.322;2022-12-18T12:52:47;5.63;;;4.13;;
21593;SDS011;10959;51.328;7.322;2022-12-18T12:55:17;5.10;;;4.00;;
21593;SDS011;10959;51.328;7.322;2022-12-18T12:57:51;6.90;;;5.23;;
21593;SDS011;10959;51.328;7.322;2022-12-18T13:00:23;5.77;;;4.97;;
21593;SDS011;10959;51.328;7.322;2022-12-18T13:02:59;5.67;;;4.63;;
21593;SDS011;10959;51.328;7.322;2022-12-18T13:05:34;6.50;;;5.20;;
21593;SDS011;10959;51.328;7.322;2022-12-18T13:08:10;6.30;;;4.70;;
21593;SDS011;10959;51.328;7.322;2022-12-18T13:10:38;5.90;;;4.40;;
21593;SDS011;10959;51.328;7.322;2022-12-18T13:13:08;7.57;;;5.20;;
21593;SDS011;10959;51.328;7.322;2022-12-18T13:15:39;6.67;;;5.43;;
21593;SDS011;10959;51.328;7.322;2022-12-18T13:18:18;5.23;;;4.67;;
21593;SDS011;10959;51.328;7.322;2022-12-18T13:20:46;6.73;;;4.93;;
21593;SDS011;10959;51.328;7.322;2022-12-18T13:23:28;7.00;;;5.70;;
21593;SDS011;10959;51.328;7.322;2022-12-18T13:25:58;6.77;;;5.37;;
21593;SDS011;10959;51.328;7.322;2022-12-18T13:34:24;7.10;;;5.83;;
21593;SDS011;10959;51.328;7.322;2022-12-18T13:36:52;7.07;;;6.07;;
21593;SDS011;10959;51.328;7.322;2022-12-18T13:39:21;7.90;;;6.20;;
21593;SDS011;10959;51.328;7.322;2022-12-18T13:41:50;9.30;;;6.43;;
21593;SDS011;10959;51.328;7.322;2022-12-18T13:44:26;9.90;;;6.47;;
21593;SDS011;10959;51.328;7.322;2022-12-18T13:46:57;9.83;;;6.80;;
21593;SDS011;10959;51.328;7.322;2022-12-18T13:49:25;8.73;;;6.53;;
21593;SDS011;10959;51.328;7.322;2022-12-18T13:52:01;11.07;;;6.73;;
21593;SDS011;10959;51.328;7.322;2022-12-18T13:54:29;8.70;;;6.63;;
21593;SDS011;10959;51.328;7.322;2022-12-18T13:56:59;9.20;;;6.20;;
21593;SDS011;10959;51.328;7.322;2022-12-18T13:59:32;8.93;;;6.50;;
21593;SDS011;10959;51.328;7.322;2022-12-18T14:02:00;8.30;;;6.57;;
21593;SDS011;10959;51.328;7.322;2022-12-18T14:04:34;8.63;;;6.67;;
21593;SDS011;10959;51.328;7.322;2022-12-18T14:07:01;8.77;;;6.10;;
21593;SDS011;10959;51.328;7.322;2022-12-18T14:09:34;10.07;;;6.93;;
21593;SDS011;10959;51.328;7.322;2022-12-18T14:12:03;9.53;;;7.50;;
21593;SDS011;10959;51.328;7.322;2022-12-18T14:14:50;10.83;;;7.83;;
21593;SDS011;10959;51.328;7.322;2022-12-18T14:17:17;9.73;;;7.63;;
21593;SDS011;10959;51.328;7.322;2022-12-18T14:19:45;10.20;;;7.70;;
21593;SDS011;10959;51.328;7.322;2022-12-18T14:22:15;10.70;;;7.30;;
21593;SDS011;10959;51.328;7.322;2022-12-18T14:24:43;8.93;;;7.17;;
21593;SDS011;10959;51.328;7.322;2022-12-18T14:27:12;9.70;;;8.17;;
21593;SDS011;10959;51.328;7.322;2022-12-18T14:29:45;9.67;;;7.80;;
21593;SDS011;10959;51.328;7.322;2022-12-18T14:32:13;9.90;;;7.80;;
21593;SDS011;10959;51.328;7.322;2022-12-18T14:34:42;9.33;;;7.73;;
21593;SDS011;10959;51.328;7.322;2022-12-18T14:37:09;9.23;;;7.27;;
21593;SDS011;10959;51.328;7.322;2022-12-18T14:39:37;11.43;;;8.80;;
21593;SDS011;10959;51.328;7.322;2022-12-18T14:42:03;9.30;;;8.00;;
21593;SDS011;10959;51.328;7.322;2022-12-18T14:44:30;10.63;;;8.20;;
21593;SDS011;10959;51.328;7.322;2022-12-18T14:46:56;9.50;;;7.60;;
21593;SDS011;10959;51.328;7.322;2022-12-18T14:49:24;10.73;;;7.80;;
21593;SDS011;10959;51.328;7.322;2022-12-18T14:51:55;15.67;;;10.83;;
21593;SDS011;10959;51.328;7.322;2022-12-18T14:54:23;10.37;;;7.30;;
21593;SDS011;10959;51.328;7.322;2022-12-18T14:56:51;11.47;;;8.50;;
21593;SDS011;10959;51.328;7.322;2022-12-18T14:59:25;10.50;;;8.03;;
21593;SDS011;10959;51.328;7.322;2022-12-18T15:01:58;10.67;;;8.27;;
21593;SDS011;10959;51.328;7.322;2022-12-18T15:04:31;11.50;;;8.77;;
21593;SDS011;10959;51.328;7.322;2022-12-18T15:07:04;11.27;;;8.47;;
21593;SDS011;10959;51.328;7.322;2022-12-18T15:09:33;10.50;;;8.33;;
21593;SDS011;10959;51.328;7.322;2022-12-18T15:12:00;12.27;;;8.93;;